Time;durP1;ratioP1;P1;durP2;ratioP2;P2;SDS_P1;SDS_P2;PMS_P1;PMS_P2;Temp;Humidity;BMP_temperature;BMP_pressure;BME280_temperature;BME280_humidity;BME280_pressure;Samples;Min_cycle;Max_cycle;Signal;HPM_P1;HPM_P2
2021/12/09 00:00:23;;;;;;;0.20;0.20;;;;;;;5.00;67.99;100170.16;5039712;28;20040;-85
2021/12/09 00:02:49;;;;;;;0.20;0.20;;;;;;;5.00;68.02;100175.41;5042791;28;20442;-84
2021/12/09 00:05:17;;;;;;;0.20;0.20;;;;;;;5.02;68.11;100186.75;5038734;28;20033;-85
2021/12/09 00:07:44;;;;;;;0.10;0.10;;;;;;;4.97;67.76;100181.56;5035864;28;20047;-84
2021/12/09 00:10:12;;;;;;;0.10;0.10;;;;;;;4.94;67.83;100184.19;5047566;28;20033;-84
2021/12/09 00:12:39;;;;;;;0.10;0.10;;;;;;;4.93;68.14;100185.06;5039410;28;20026;-86
2021/12/09 00:15:08;;;;;;;0.10;0.10;;;;;;;4.89;68.12;100188.59;5041907;28;20088;-84
2021/12/09 00:17:34;;;;;;;0.10;0.10;;;;;;;4.91;67.89;100176.34;5037491;28;20033;-82
2021/12/09 00:20:01;;;;;;;0.60;0.60;;;;;;;4.95;68.04;100185.06;5037450;28;20092;-85
2021/12/09 00:22:27;;;;;;;0.20;0.20;;;;;;;4.97;67.83;100185.91;5039007;28;20034;-85
2021/12/09 00:24:54;;;;;;;0.20;0.20;;;;;;;4.86;68.19;100188.66;5037985;28;20021;-85
2021/12/09 00:27:20;;;;;;;0.20;0.20;;;;;;;4.85;67.95;100187.75;5043134;28;20069;-85
2021/12/09 00:29:46;;;;;;;0.20;0.20;;;;;;;4.86;67.92;100181.63;5044000;28;20535;-82
2021/12/09 00:32:12;;;;;;;0.10;0.10;;;;;;;4.88;68.20;100192.09;5031658;28;20469;-85
2021/12/09 00:34:42;;;;;;;0.20;0.20;;;;;;;4.86;68.39;100194.75;5036545;28;20033;-85
2021/12/09 00:37:18;;;;;;;0.20;0.20;;;;;;;4.85;68.30;100192.16;5033534;28;20072;-85
2021/12/09 00:39:47;;;;;;;0.10;0.10;;;;;;;4.84;68.02;100191.25;5046221;28;20045;-87
2021/12/09 00:42:13;;;;;;;0.10;0.10;;;;;;;4.85;68.76;100187.75;5043393;28;20026;-83
2021/12/09 00:44:40;;;;;;;0.10;0.10;;;;;;;4.89;68.68;100187.75;5036723;28;20120;-85
2021/12/09 00:47:08;;;;;;;0.20;0.20;;;;;;;4.90;68.79;100185.09;5032621;28;20030;-82
2021/12/09 00:49:35;;;;;;;0.30;0.30;;;;;;;4.94;68.69;100189.44;5037782;28;20034;-85
2021/12/09 00:52:04;;;;;;;0.20;0.20;;;;;;;4.95;68.84;100191.19;5026667;28;20034;-86
2021/12/09 00:54:30;;;;;;;0.20;0.20;;;;;;;4.98;68.54;100185.03;5032579;28;20037;-86
2021/12/09 00:56:57;;;;;;;0.13;0.13;;;;;;;4.96;68.51;100184.16;5027646;28;20041;-84
2021/12/09 00:59:24;;;;;;;1.65;1.55;;;;;;;4.94;68.94;100188.59;5023629;28;20477;-86
2021/12/09 01:01:50;;;;;;;0.20;0.20;;;;;;;4.94;68.68;100191.22;5023841;28;20041;-87
2021/12/09 01:04:16;;;;;;;0.20;0.20;;;;;;;4.96;68.42;100185.06;5018811;28;20512;-85
2021/12/09 01:06:42;;;;;;;0.20;0.20;;;;;;;5.01;68.38;100192.91;5027290;28;20037;-86
2021/12/09 01:09:09;;;;;;;0.10;0.10;;;;;;;4.96;68.86;100186.78;5029261;28;20456;-87
2021/12/09 01:11:35;;;;;;;0.20;0.20;;;;;;;4.97;68.63;100193.78;5027041;28;20059;-85
2021/12/09 01:14:01;;;;;;;0.20;0.20;;;;;;;4.98;68.57;100193.78;5031626;28;20035;-87
2021/12/09 01:16:27;;;;;;;0.20;0.20;;;;;;;4.99;68.36;100197.28;5024766;28;20418;-85
2021/12/09 01:18:54;;;;;;;0.20;0.20;;;;;;;4.97;68.52;100194.69;5032967;28;20037;-85
2021/12/09 01:21:20;;;;;;;0.10;0.10;;;;;;;4.96;68.59;100194.66;5016120;28;20540;-85
2021/12/09 01:23:46;;;;;;;2.33;2.22;;;;;;;4.96;68.49;100195.56;5016689;28;20092;-85
2021/12/09 01:26:12;;;;;;;0.10;0.10;;;;;;;4.97;68.50;100202.56;5033430;28;20095;-85
2021/12/09 01:28:46;;;;;;;0.10;0.10;;;;;;;4.93;68.69;100194.72;5027515;28;20480;-85
2021/12/09 01:31:21;;;;;;;0.20;0.20;;;;;;;4.95;68.86;100192.97;5030867;28;20377;-86
2021/12/09 01:33:47;;;;;;;0.10;0.10;;;;;;;4.96;68.34;100199.91;5029864;28;20465;-84
2021/12/09 01:36:13;;;;;;;0.20;0.20;;;;;;;4.93;68.06;100190.31;5030118;28;20029;-86
2021/12/09 01:38:39;;;;;;;0.20;0.20;;;;;;;4.91;68.13;100196.47;5023490;28;20428;-84
2021/12/09 01:41:06;;;;;;;0.20;0.20;;;;;;;4.93;68.66;100199.97;5024389;28;20365;-81
2021/12/09 01:43:32;;;;;;;0.13;0.13;;;;;;;4.92;68.07;100201.72;5028571;28;20496;-80
2021/12/09 01:46:05;;;;;;;0.10;0.10;;;;;;;4.91;68.59;100197.34;5031787;28;20107;-79
2021/12/09 01:48:32;;;;;;;0.20;0.20;;;;;;;4.88;68.71;100191.25;5026306;28;20079;-78
2021/12/09 01:50:58;;;;;;;0.10;0.10;;;;;;;4.83;68.45;100200.00;5024655;28;20037;-81
2021/12/09 01:53:25;;;;;;;0.20;0.20;;;;;;;4.86;68.44;100200.00;5021452;28;20038;-84
2021/12/09 01:55:51;;;;;;;0.20;0.20;;;;;;;4.82;68.60;100192.16;5017200;28;20469;-85
2021/12/09 01:58:17;;;;;;;0.32;0.32;;;;;;;4.85;68.11;100194.78;5021893;28;20034;-86
2021/12/09 02:00:44;;;;;;;0.20;0.20;;;;;;;4.84;68.09;100196.50;5023610;28;20041;-86
2021/12/09 02:03:10;;;;;;;0.10;0.10;;;;;;;4.83;68.58;100202.63;5027163;28;20389;-84
2021/12/09 02:05:40;;;;;;;0.20;0.20;;;;;;;4.82;68.26;100200.91;5028266;28;20035;-85
2021/12/09 02:08:08;;;;;;;0.10;0.10;;;;;;;4.81;68.03;100196.53;5021218;28;20037;-86
2021/12/09 02:10:34;;;;;;;0.30;0.30;;;;;;;4.76;68.40;100202.69;5027891;28;20037;-85
2021/12/09 02:13:02;;;;;;;0.20;0.20;;;;;;;4.81;68.20;100201.78;5018072;28;20065;-86
2021/12/09 02:15:28;;;;;;;0.10;0.10;;;;;;;4.76;68.33;100198.34;5024998;28;20029;-87
2021/12/09 02:17:56;;;;;;;0.20;0.20;;;;;;;4.75;68.14;100188.72;5029782;28;20438;-85
2021/12/09 02:20:26;;;;;;;0.22;0.22;;;;;;;4.73;68.57;100192.22;5030284;28;20409;-86
2021/12/09 02:22:53;;;;;;;0.15;0.15;;;;;;;4.73;68.57;100193.09;5024336;28;20508;-86
2021/12/09 02:25:19;;;;;;;0.20;0.20;;;;;;;4.71;68.65;100192.25;5029804;28;20386;-83
2021/12/09 02:27:46;;;;;;;0.20;0.20;;;;;;;4.70;68.36;100196.59;5018263;28;20037;-85
2021/12/09 02:30:13;;;;;;;0.20;0.20;;;;;;;4.69;68.29;100196.63;5026446;28;20033;-84
2021/12/09 02:32:40;;;;;;;0.13;0.13;;;;;;;4.70;68.85;100190.50;5017315;28;20045;-85
2021/12/09 02:35:07;;;;;;;0.10;0.10;;;;;;;4.66;68.61;100194.00;5027756;28;20025;-86
2021/12/09 02:37:33;;;;;;;0.20;0.20;;;;;;;4.72;68.64;100207.09;5029271;28;20034;-83
2021/12/09 02:40:00;;;;;;;0.20;0.20;;;;;;;4.67;68.75;100203.63;5022327;28;20083;-86
2021/12/09 02:42:26;;;;;;;0.40;0.40;;;;;;;4.72;68.40;100206.22;5013992;28;20038;-85
2021/12/09 02:44:55;;;;;;;0.20;0.20;;;;;;;4.67;68.72;100203.63;5033206;28;20040;-86
2021/12/09 02:47:21;;;;;;;0.10;0.10;;;;;;;4.68;68.35;100213.25;5019039;28;20493;-87
2021/12/09 02:49:48;;;;;;;0.13;0.13;;;;;;;4.67;68.10;100208.88;5022591;28;20042;-85
2021/12/09 02:52:14;;;;;;;0.20;0.20;;;;;;;4.60;68.64;100204.53;5027225;28;20075;-87
2021/12/09 02:54:40;;;;;;;0.20;0.20;;;;;;;4.62;68.69;100208.91;5023475;28;20048;-83
2021/12/09 02:57:09;;;;;;;0.20;0.20;;;;;;;4.64;67.91;100208.91;5019122;28;20504;-85
2021/12/09 02:59:35;;;;;;;0.10;0.10;;;;;;;4.58;68.33;100208.94;5027733;28;20481;-86
2021/12/09 03:02:05;;;;;;;0.10;0.10;;;;;;;4.53;68.19;100209.81;5015010;28;20476;-84
2021/12/09 03:07:38;;;;;;;0.20;0.20;;;;;;;4.60;68.04;100207.16;5042654;27;20460;-86
2021/12/09 03:10:18;;;;;;;0.10;0.10;;;;;;;4.56;68.29;100210.69;5037554;28;20055;-82
2021/12/09 03:12:48;;;;;;;0.20;0.20;;;;;;;4.53;68.00;100214.19;5040232;28;20029;-85
2021/12/09 03:15:15;;;;;;;0.15;0.15;;;;;;;4.47;68.08;100211.59;5016939;28;20041;-83
2021/12/09 03:17:42;;;;;;;0.20;0.20;;;;;;;4.47;68.27;100207.22;5036336;28;20025;-85
2021/12/09 03:20:11;;;;;;;0.20;0.20;;;;;;;4.46;68.20;100200.25;5041142;28;20044;-85
2021/12/09 03:22:38;;;;;;;0.13;0.13;;;;;;;4.43;68.33;100204.63;5038174;28;20030;-85
2021/12/09 03:25:09;;;;;;;0.20;0.20;;;;;;;4.43;68.44;100209.88;5037159;28;20029;-83
2021/12/09 03:27:35;;;;;;;0.13;0.13;;;;;;;4.40;68.60;100209.88;5041593;28;20388;-84
2021/12/09 03:30:04;;;;;;;0.20;0.20;;;;;;;4.41;68.50;100202.03;5045170;28;20431;-86
2021/12/09 03:32:30;;;;;;;0.65;0.65;;;;;;;4.39;68.23;100209.03;5040589;28;20034;-80
2021/12/09 03:34:56;;;;;;;0.10;0.10;;;;;;;4.40;68.19;100210.78;5037504;28;20029;-80
2021/12/09 03:37:27;;;;;;;0.50;0.50;;;;;;;4.39;68.37;100209.03;5040112;28;20045;-83
2021/12/09 03:39:55;;;;;;;0.20;0.20;;;;;;;4.34;68.62;100206.41;5038007;28;20038;-86
2021/12/09 03:42:26;;;;;;;0.10;0.10;;;;;;;4.36;68.19;100214.28;5033859;28;20060;-79
2021/12/09 03:44:54;;;;;;;0.13;0.13;;;;;;;4.31;68.59;100210.81;5052193;28;20029;-84
2021/12/09 03:47:25;;;;;;;0.10;0.10;;;;;;;4.26;69.18;100225.69;5050471;28;20480;-84
2021/12/09 03:49:52;;;;;;;0.40;0.40;;;;;;;4.31;69.05;100213.44;5048578;28;20057;-83
2021/12/09 03:52:18;;;;;;;0.10;0.10;;;;;;;4.32;68.72;100233.53;5039787;28;20033;-85
2021/12/09 03:54:45;;;;;;;0.20;0.20;;;;;;;4.32;69.00;100230.91;5043392;28;20064;-85
2021/12/09 03:57:12;;;;;;;0.20;0.20;;;;;;;4.33;68.67;100224.78;5047679;28;20037;-77
2021/12/09 03:59:40;;;;;;;0.20;0.20;;;;;;;4.34;69.27;100231.78;5042961;28;20052;-84
2021/12/09 04:02:08;;;;;;;0.15;0.15;;;;;;;4.31;69.28;100229.16;5035395;28;20507;-81
2021/12/09 04:04:34;;;;;;;0.10;0.10;;;;;;;4.36;68.82;100230.00;5042104;28;20033;-84
2021/12/09 04:07:01;;;;;;;0.13;0.13;;;;;;;4.30;69.05;100238.78;5040031;28;20489;-84
2021/12/09 04:09:29;;;;;;;0.20;0.20;;;;;;;4.31;69.40;100240.53;5031818;28;20026;-86
2021/12/09 04:11:55;;;;;;;0.20;0.20;;;;;;;4.35;68.98;100236.16;5037412;28;20036;-84
2021/12/09 04:14:24;;;;;;;0.20;0.20;;;;;;;4.38;69.23;100242.22;5034449;28;20033;-85
2021/12/09 04:16:52;;;;;;;0.10;0.10;;;;;;;4.35;69.24;100244.03;5029668;28;20038;-83
2021/12/09 04:19:19;;;;;;;0.20;0.20;;;;;;;4.36;68.91;100246.63;5017048;28;20523;-83
2021/12/09 04:21:46;;;;;;;0.25;0.25;;;;;;;4.36;69.02;100251.00;5030100;28;20366;-84
2021/12/09 04:24:14;;;;;;;0.20;0.20;;;;;;;4.38;69.13;100250.09;5027143;28;20105;-84
2021/12/09 04:26:45;;;;;;;0.10;0.10;;;;;;;4.38;68.65;100247.47;5018055;28;20485;-78
2021/12/09 04:29:12;;;;;;;0.13;0.13;;;;;;;4.38;69.10;100244.84;5019692;28;20048;-85
2021/12/09 04:31:40;;;;;;;0.20;0.20;;;;;;;4.34;68.95;100237.88;5035820;28;20029;-84
2021/12/09 04:34:07;;;;;;;0.10;0.10;;;;;;;4.35;68.80;100236.16;5032684;28;20041;-81
2021/12/09 04:36:33;;;;;;;0.20;0.20;;;;;;;4.33;69.18;100235.28;5023418;28;20421;-84
2021/12/09 04:39:03;;;;;;;0.20;0.20;;;;;;;4.37;68.54;100237.00;5016778;28;20042;-85
2021/12/09 04:41:29;;;;;;;0.10;0.10;;;;;;;4.36;68.50;100243.13;5028695;28;20061;-86
2021/12/09 04:43:55;;;;;;;0.20;0.20;;;;;;;4.28;69.07;100237.91;5025000;28;20033;-85
2021/12/09 04:46:21;;;;;;;0.20;0.20;;;;;;;4.35;68.57;100234.41;5027926;28;20030;-85
2021/12/09 04:48:48;;;;;;;0.20;0.20;;;;;;;4.32;68.56;100238.78;5028543;28;20030;-87
2021/12/09 04:51:14;;;;;;;0.68;0.68;;;;;;;4.33;68.32;100241.38;5022748;28;20038;-85
2021/12/09 04:53:40;;;;;;;0.20;0.20;;;;;;;4.29;68.79;100249.28;5024336;28;20045;-84
2021/12/09 04:56:07;;;;;;;0.40;0.40;;;;;;;4.27;68.88;100251.03;5019201;28;20038;-84
2021/12/09 04:58:34;;;;;;;0.13;0.13;;;;;;;4.31;68.29;100255.38;5031336;28;20045;-86
2021/12/09 05:01:05;;;;;;;0.20;0.20;;;;;;;4.25;68.97;100263.28;5015372;28;20073;-85
2021/12/09 05:03:32;;;;;;;0.20;0.20;;;;;;;4.28;68.73;100268.53;5023301;28;20038;-85
2021/12/09 05:05:58;;;;;;;0.20;0.20;;;;;;;4.28;68.66;100261.53;5033675;28;20131;-86
2021/12/09 05:08:27;;;;;;;0.20;0.20;;;;;;;4.29;68.42;100265.88;5026357;28;20044;-85
2021/12/09 05:11:06;;;;;;;0.10;0.10;;;;;;;4.25;68.20;100266.78;5026757;28;20025;-85
2021/12/09 05:13:35;;;;;;;0.10;0.10;;;;;;;4.24;68.87;100266.78;5015638;28;20034;-86
2021/12/09 05:16:04;;;;;;;0.20;0.20;;;;;;;4.20;68.75;100268.56;5020612;28;20029;-85
2021/12/09 05:18:33;;;;;;;0.20;0.20;;;;;;;4.22;69.03;100269.41;5019854;28;20034;-84
2021/12/09 05:21:01;;;;;;;0.10;0.10;;;;;;;4.24;68.86;100266.78;5024976;28;20026;-86
2021/12/09 05:23:27;;;;;;;0.10;0.10;;;;;;;4.23;68.88;100275.53;5025778;28;20025;-86
2021/12/09 05:25:54;;;;;;;0.17;0.17;;;;;;;4.21;68.21;100279.03;5033152;28;20033;-86
2021/12/09 05:28:29;;;;;;;0.10;0.10;;;;;;;4.17;68.32;100276.41;5023728;28;20022;-86
2021/12/09 05:33:42;;;;;;;0.20;0.20;;;;;;;4.20;68.53;100276.44;5025082;28;20054;-87
2021/12/09 05:36:09;;;;;;;0.20;0.20;;;;;;;4.21;68.85;100271.16;5017822;28;20477;-86
2021/12/09 05:38:36;;;;;;;0.10;0.10;;;;;;;4.21;68.56;100268.53;5030364;28;20128;-85
2021/12/09 05:41:03;;;;;;;0.10;0.10;;;;;;;4.19;68.86;100266.81;5026161;28;20108;-85
2021/12/09 05:43:29;;;;;;;0.43;0.43;;;;;;;4.20;68.89;100269.41;5024479;28;20041;-87
2021/12/09 05:45:56;;;;;;;0.20;0.20;;;;;;;4.23;68.51;100270.28;5017310;28;20029;-86
2021/12/09 05:48:22;;;;;;;0.20;0.20;;;;;;;4.28;68.50;100268.53;5026412;28;20033;-85
2021/12/09 05:50:48;;;;;;;0.10;0.10;;;;;;;4.27;69.07;100272.03;5015245;28;20037;-85
2021/12/09 05:53:15;;;;;;;0.10;0.10;;;;;;;4.20;68.80;100271.19;5029548;28;20030;-86
2021/12/09 05:55:43;;;;;;;0.20;0.20;;;;;;;4.25;68.99;100274.66;5030928;28;20026;-86
2021/12/09 05:58:19;;;;;;;0.10;0.10;;;;;;;4.27;68.92;100266.78;5019360;28;20484;-85
2021/12/09 06:00:47;;;;;;;0.20;0.20;;;;;;;4.26;69.07;100268.53;5031076;28;20025;-86
2021/12/09 06:03:15;;;;;;;0.10;0.10;;;;;;;4.23;68.62;100275.53;5021106;28;20073;-85
2021/12/09 06:05:42;;;;;;;0.20;0.20;;;;;;;4.24;68.71;100272.00;5023756;28;20467;-88
2021/12/09 06:08:09;;;;;;;1.17;1.08;;;;;;;4.25;68.59;100271.13;5008743;28;20045;-82
2021/12/09 06:10:36;;;;;;;0.10;0.10;;;;;;;4.25;68.37;100274.66;5031387;28;20034;-86
2021/12/09 06:13:04;;;;;;;0.20;0.20;;;;;;;4.20;68.59;100277.28;5022817;28;20026;-87
2021/12/09 06:15:31;;;;;;;0.10;0.10;;;;;;;4.18;68.93;100284.28;5027507;28;20108;-83
2021/12/09 06:17:58;;;;;;;0.20;0.20;;;;;;;4.18;68.85;100289.50;5022907;28;20037;-87
2021/12/09 06:20:27;;;;;;;0.20;0.20;;;;;;;4.27;69.01;100283.38;5018343;28;20033;-83
2021/12/09 06:22:54;;;;;;;0.20;0.20;;;;;;;4.24;69.21;100279.88;5017874;28;20558;-84
2021/12/09 06:25:21;;;;;;;0.10;0.10;;;;;;;4.29;69.31;100280.78;5030666;28;20029;-85
2021/12/09 06:27:49;;;;;;;0.10;0.10;;;;;;;4.30;68.90;100272.00;5021837;28;20029;-86
2021/12/09 06:30:18;;;;;;;0.10;0.10;;;;;;;4.35;68.91;100281.59;5029421;28;20113;-88
2021/12/09 06:32:44;;;;;;;0.20;0.20;;;;;;;4.33;69.41;100278.09;5028720;28;20037;-83
2021/12/09 06:35:12;;;;;;;0.20;0.20;;;;;;;4.30;68.97;100279.88;5032578;28;20476;-86
2021/12/09 06:37:43;;;;;;;0.20;0.20;;;;;;;4.38;69.22;100280.72;5033220;28;20095;-85
2021/12/09 06:40:13;;;;;;;0.20;0.20;;;;;;;4.36;68.70;100280.72;5027141;28;20026;-86
2021/12/09 06:42:41;;;;;;;0.10;0.10;;;;;;;4.35;69.13;100276.34;5031253;28;20159;-81
2021/12/09 06:45:09;;;;;;;0.20;0.20;;;;;;;4.32;68.60;100285.97;5024242;28;20064;-87
2021/12/09 06:47:35;;;;;;;0.10;0.10;;;;;;;4.34;69.04;100284.25;5023559;28;20030;-85
2021/12/09 06:50:02;;;;;;;0.10;0.10;;;;;;;4.28;68.90;100279.88;5028267;28;20385;-84
2021/12/09 06:52:28;;;;;;;0.10;0.10;;;;;;;4.23;69.15;100286.88;5030969;28;20052;-87
2021/12/09 06:54:55;;;;;;;1.65;0.75;;;;;;;4.27;68.86;100283.38;5026255;28;20518;-85
2021/12/09 06:57:21;;;;;;;0.10;0.10;;;;;;;4.28;68.76;100279.88;5032161;28;20084;-87
2021/12/09 06:59:47;;;;;;;0.20;0.20;;;;;;;4.25;69.22;100286.88;5025612;28;20477;-87
2021/12/09 07:02:13;;;;;;;0.20;0.20;;;;;;;4.26;68.93;100281.66;5029072;28;20159;-86
2021/12/09 07:04:42;;;;;;;0.20;0.20;;;;;;;4.28;68.68;100284.25;5028838;28;20029;-86
2021/12/09 07:07:08;;;;;;;0.10;0.10;;;;;;;4.32;68.77;100288.59;5030425;22;20050;-86
2021/12/09 07:09:37;;;;;;;0.10;0.10;;;;;;;4.35;68.64;100296.47;5013044;28;20030;-89
2021/12/09 07:12:04;;;;;;;0.20;0.20;;;;;;;4.33;69.09;100293.84;5013088;28;20519;-89
2021/12/09 07:14:30;;;;;;;0.80;0.80;;;;;;;4.41;68.59;100295.56;5013457;28;20065;-88
2021/12/09 07:16:56;;;;;;;0.13;0.13;;;;;;;4.41;68.98;100300.81;5013230;28;20041;-88
2021/12/09 07:19:23;;;;;;;0.10;0.10;;;;;;;4.40;69.08;100294.72;5012874;28;20413;-86
2021/12/09 07:21:49;;;;;;;0.20;0.20;;;;;;;4.39;68.96;100292.97;5013322;28;20026;-87
2021/12/09 07:24:15;;;;;;;0.20;0.20;;;;;;;4.40;68.66;100286.84;5012577;28;20034;-86
2021/12/09 07:26:41;;;;;;;0.20;0.20;;;;;;;4.35;69.11;100297.34;5012525;28;20057;-85
2021/12/09 07:29:08;;;;;;;0.10;0.10;;;;;;;4.36;68.69;100290.34;5011608;28;20041;-87
2021/12/09 07:31:35;;;;;;;0.15;0.15;;;;;;;4.38;69.16;100302.56;5011542;28;20045;-88
2021/12/09 07:34:03;;;;;;;0.30;0.30;;;;;;;4.50;69.05;100300.81;5012825;28;20112;-86
2021/12/09 07:36:29;;;;;;;0.10;0.10;;;;;;;4.54;69.29;100308.63;5011866;28;20022;-86
2021/12/09 07:38:55;;;;;;;0.20;0.20;;;;;;;4.62;69.41;100320.84;5012094;28;20030;-87
2021/12/09 07:41:21;;;;;;;0.20;0.20;;;;;;;4.64;69.28;100314.72;5012339;28;20077;-84
2021/12/09 07:43:49;;;;;;;1.27;1.25;;;;;;;4.71;69.11;100323.47;5012275;28;20030;-87
2021/12/09 07:46:16;;;;;;;0.10;0.10;;;;;;;4.76;68.74;100313.81;5004063;28;20092;-85
2021/12/09 07:48:42;;;;;;;0.30;0.30;;;;;;;4.86;68.72;100327.75;5010368;28;20030;-85
2021/12/09 07:51:09;;;;;;;0.20;0.20;;;;;;;4.89;68.71;100329.50;5011210;28;20065;-85
2021/12/09 07:53:35;;;;;;;0.20;0.20;;;;;;;4.94;68.99;100327.72;5005989;28;20797;-86
2021/12/09 07:56:01;;;;;;;1.20;1.20;;;;;;;5.06;68.71;100324.13;5013519;28;20033;-86
2021/12/09 07:58:28;;;;;;;0.20;0.20;;;;;;;5.08;68.75;100327.63;5014488;28;20481;-86
2021/12/09 08:00:54;;;;;;;0.10;0.10;;;;;;;5.23;68.71;100330.16;5014036;28;20034;-85
2021/12/09 08:03:21;;;;;;;1.27;0.40;;;;;;;5.30;68.72;100331.00;5009242;28;20094;-87
2021/12/09 08:05:48;;;;;;;0.20;0.20;;;;;;;5.36;68.88;100336.22;5002393;28;20042;-84
2021/12/09 08:08:15;;;;;;;0.10;0.10;;;;;;;5.38;68.50;100329.19;5005408;28;20504;-83
2021/12/09 08:10:41;;;;;;;3.13;2.38;;;;;;;5.45;68.18;100336.16;5006669;28;20567;-86
2021/12/09 08:13:08;;;;;;;0.10;0.10;;;;;;;5.44;67.97;100337.03;5008605;28;20034;-85
2021/12/09 08:15:45;;;;;;;0.63;0.63;;;;;;;5.55;68.04;100336.09;5011614;28;20689;-84
2021/12/09 08:21:02;;;;;;;0.20;0.20;;;;;;;5.62;68.40;100340.41;5063052;28;20218;-84
2021/12/09 08:23:28;;;;;;;0.20;0.20;;;;;;;5.65;67.92;100348.28;5064157;28;20028;-89
2021/12/09 08:25:57;;;;;;;0.10;0.10;;;;;;;5.69;67.86;100339.47;5059458;28;20341;-86
2021/12/09 08:28:24;;;;;;;0.10;0.10;;;;;;;5.73;67.95;100345.56;5031684;28;20178;-86
2021/12/09 08:30:51;;;;;;;0.10;0.10;;;;;;;5.81;68.01;100352.53;5033927;28;20034;-84
2021/12/09 08:33:23;;;;;;;13.52;1.90;;;;;;;5.87;67.89;100350.72;5042487;28;20026;-87
2021/12/09 08:38:18;;;;;;;0.20;0.20;;;;;;;5.93;68.04;100355.94;5029582;28;20042;-84
2021/12/09 08:40:47;;;;;;;0.20;0.20;;;;;;;5.94;67.57;100349.78;5031179;28;20037;-82
2021/12/09 08:43:14;;;;;;;0.10;0.10;;;;;;;5.98;67.57;100351.50;5030710;28;20029;-84
2021/12/09 08:45:40;;;;;;;0.20;0.20;;;;;;;5.98;67.68;100349.78;5031644;28;20379;-83
2021/12/09 08:48:07;;;;;;;1.48;1.48;;;;;;;5.99;67.50;100348.00;5010070;28;20034;-82
2021/12/09 08:50:34;;;;;;;0.20;0.20;;;;;;;5.99;67.09;100345.38;5011453;28;20034;-84
2021/12/09 08:53:07;;;;;;;0.57;0.57;;;;;;;5.99;67.36;100356.78;5011589;28;20027;-83
2021/12/09 08:55:33;;;;;;;0.20;0.20;;;;;;;5.86;67.25;100356.84;5011839;28;20346;-82
2021/12/09 08:58:00;;;;;;;0.10;0.10;;;;;;;5.88;67.45;100361.25;5010905;28;20041;-83
2021/12/09 09:00:28;;;;;;;0.17;0.17;;;;;;;5.87;67.47;100364.75;5010962;28;20092;-82
2021/12/09 09:02:55;;;;;;;0.20;0.20;;;;;;;5.82;67.39;100351.63;5010956;28;20058;-82
2021/12/09 09:05:21;;;;;;;0.10;0.10;;;;;;;5.88;67.52;100360.34;5010992;28;20527;-81
2021/12/09 09:07:49;;;;;;;0.20;0.20;;;;;;;5.97;67.58;100360.28;5011006;28;20057;-82
2021/12/09 09:10:19;;;;;;;0.30;0.30;;;;;;;6.00;67.85;100360.28;5011069;28;20036;-80
2021/12/09 09:12:46;;;;;;;0.40;0.40;;;;;;;6.08;67.67;100363.72;5011601;28;20018;-80
2021/12/09 09:15:15;;;;;;;0.10;0.10;;;;;;;6.22;67.56;100363.59;5010655;28;20474;-81
2021/12/09 09:17:41;;;;;;;0.45;0.45;;;;;;;6.35;67.65;100364.31;5007284;28;20464;-84
2021/12/09 09:20:11;;;;;;;0.10;0.10;;;;;;;6.45;67.68;100365.97;5009303;28;20030;-81
2021/12/09 09:22:39;;;;;;;0.10;0.10;;;;;;;6.61;67.61;100361.41;5004424;28;20113;-83
2021/12/09 09:25:08;;;;;;;0.10;0.10;;;;;;;6.71;67.51;100364.81;5002746;28;20030;-83
2021/12/09 09:27:35;;;;;;;0.40;0.40;;;;;;;6.85;67.44;100356.75;5006360;28;20493;-82
2021/12/09 09:30:04;;;;;;;0.10;0.10;;;;;;;6.90;66.93;100354.06;5007737;28;20125;-82
2021/12/09 09:32:35;;;;;;;0.10;0.10;;;;;;;6.86;66.47;100352.34;4989012;28;20038;-84
2021/12/09 09:35:01;;;;;;;0.10;0.10;;;;;;;7.01;66.69;100357.41;4992905;28;20037;-81
2021/12/09 09:37:28;;;;;;;0.10;0.10;;;;;;;7.01;66.36;100346.88;4991069;28;20477;-82
2021/12/09 09:39:54;;;;;;;0.10;0.10;;;;;;;7.04;65.90;100357.41;4979156;28;20247;-82
2021/12/09 09:42:54;;;;;;;0.22;0.22;;;;;;;7.01;65.81;100357.41;4984728;28;20049;-83
2021/12/09 09:45:14;;;;;;;0.80;0.52;;;;;;;7.00;65.92;100355.66;4993841;28;20034;-83
2021/12/09 09:47:41;;;;;;;0.52;0.52;;;;;;;7.00;65.96;100360.09;4989507;28;20034;-84
2021/12/09 09:50:09;;;;;;;0.30;0.30;;;;;;;6.94;66.33;100355.75;4985134;28;20926;-81
2021/12/09 09:52:36;;;;;;;0.17;0.17;;;;;;;6.97;65.98;100371.53;4987437;28;20113;-82
2021/12/09 09:55:07;;;;;;;0.57;0.57;;;;;;;7.05;66.64;100380.22;4987070;28;20034;-83
2021/12/09 09:57:33;;;;;;;0.10;0.10;;;;;;;7.10;66.70;100372.22;4988710;28;20054;-84
2021/12/09 10:00:02;;;;;;;0.20;0.20;;;;;;;7.15;66.52;100369.53;4990412;28;20035;-84
2021/12/09 10:02:28;;;;;;;0.20;0.20;;;;;;;7.25;66.69;100365.88;4988997;28;20073;-81
2021/12/09 10:05:05;;;;;;;0.10;0.10;;;;;;;7.28;66.44;100368.50;4993131;28;20117;-82
2021/12/09 10:07:33;;;;;;;0.15;0.15;;;;;;;7.32;65.80;100362.28;4990825;28;20385;-81
2021/12/09 10:10:00;;;;;;;0.40;0.40;;;;;;;7.38;66.33;100367.44;4987219;28;20053;-82
2021/12/09 10:12:27;;;;;;;0.20;0.20;;;;;;;7.38;66.65;100362.19;4985397;28;20031;-83
2021/12/09 10:14:54;;;;;;;1.17;1.17;;;;;;;7.44;67.18;100367.38;4990980;28;20034;-82
2021/12/09 10:17:26;;;;;;;0.17;0.17;;;;;;;7.49;66.84;100364.66;4988356;28;20134;-84
2021/12/09 10:22:40;;;;;;;0.63;0.63;;;;;;;7.65;67.27;100354.75;5096029;27;20415;-82
2021/12/09 10:25:24;;;;;;;0.10;0.10;;;;;;;7.73;66.62;100355.50;5091926;28;20035;-83
2021/12/09 10:27:59;;;;;;;0.10;0.10;;;;;;;7.75;66.26;100356.34;5072286;28;20033;-82
2021/12/09 10:30:26;;;;;;;0.10;0.10;;;;;;;7.68;66.70;100359.97;5069864;28;20044;-82
2021/12/09 10:33:01;;;;;;;3.92;0.85;;;;;;;7.80;66.32;100363.31;5068729;28;20032;-83
2021/12/09 10:35:28;;;;;;;0.88;0.88;;;;;;;7.79;66.09;100357.19;5064854;28;20066;-79
2021/12/09 10:37:54;;;;;;;0.57;0.57;;;;;;;7.86;67.25;100363.22;5066310;28;20037;-82
2021/12/09 10:40:26;;;;;;;0.55;0.52;;;;;;;7.98;66.46;100351.59;5062901;28;20044;-80
2021/12/09 10:42:55;;;;;;;0.20;0.20;;;;;;;7.99;66.51;100353.31;5063513;28;20407;-83
2021/12/09 10:53:48;;;;;;;0.60;0.60;;;;;;;8.03;65.82;100358.50;5056523;27;20821;-83
2021/12/09 10:56:26;;;;;;;0.17;0.17;;;;;;;8.16;65.97;100353.03;5058924;28;20029;-87
2021/12/09 10:58:52;;;;;;;0.32;0.32;;;;;;;8.06;65.64;100355.84;5046417;28;20144;-84
2021/12/09 11:01:21;;;;;;;1.10;1.10;;;;;;;8.10;66.28;100352.25;5049443;28;20428;-82
2021/12/09 11:03:53;;;;;;;0.32;0.32;;;;;;;8.12;65.51;100348.72;5049468;28;20037;-86
2021/12/09 11:06:23;;;;;;;0.90;0.90;;;;;;;8.21;65.32;100345.88;5049359;28;20045;-83
2021/12/09 11:08:53;;;;;;;15.68;1.17;;;;;;;8.19;65.43;100339.78;5047100;28;20033;-86
2021/12/09 11:11:32;;;;;;;0.10;0.10;;;;;;;8.25;65.87;100342.31;5049599;28;20040;-84
2021/12/09 11:16:49;;;;;;;1.42;1.35;;;;;;;8.29;66.09;100340.47;5082634;27;20415;-85
2021/12/09 11:22:20;;;;;;;0.47;0.47;;;;;;;8.27;65.91;100332.59;5070098;28;20452;-85
2021/12/09 11:24:55;;;;;;;0.28;0.28;;;;;;;8.31;65.45;100331.66;5052277;28;20033;-85
2021/12/09 11:27:29;;;;;;;0.35;0.35;;;;;;;8.24;65.88;100332.66;5040286;28;20093;-87
2021/12/09 11:30:08;;;;;;;0.10;0.10;;;;;;;8.38;66.07;100329.75;5035177;28;20069;-87
2021/12/09 11:35:24;;;;;;;5.05;3.05;;;;;;;8.31;65.54;100329.00;5081347;27;20495;-84
2021/12/09 11:38:23;;;;;;;0.10;0.10;;;;;;;8.35;65.36;100324.50;5069254;28;20091;-84
2021/12/09 11:40:56;;;;;;;0.17;0.17;;;;;;;8.43;65.99;100323.47;5070545;28;20037;-84
2021/12/09 11:43:23;;;;;;;;;;;;;;;8.51;65.38;100318.09;5070780;28;20033;-84
2021/12/09 11:45:52;;;;;;;3.25;1.58;;;;;;;8.43;65.90;100320.81;5069860;28;19913;-84
2021/12/09 11:48:18;;;;;;;0.20;0.20;;;;;;;8.48;65.32;100319.91;5070031;28;20110;-85
2021/12/09 11:50:49;;;;;;;0.17;0.17;;;;;;;8.57;65.74;100325.00;5070417;28;20033;-83
2021/12/09 11:53:19;;;;;;;1.42;1.17;;;;;;;8.51;64.87;100319.84;5069291;28;20409;-85
2021/12/09 11:55:58;;;;;;;0.45;0.45;;;;;;;8.57;65.47;100314.44;5069893;28;20028;-86
2021/12/09 11:58:28;;;;;;;0.32;0.32;;;;;;;8.58;65.76;100317.06;5062229;28;20032;-84
2021/12/09 12:23:58;;;;;;;0.20;0.20;;;;;;;8.46;66.75;100311.09;5131190;27;20422;-85
2021/12/09 12:41:10;;;;;;;2.00;1.15;;;;;;;8.41;67.36;100301.53;5057413;27;1222586;-85
2021/12/09 12:43:45;;;;;;;0.60;0.60;;;;;;;8.48;67.10;100307.56;5090458;28;20028;-86
2021/12/09 12:46:22;;;;;;;0.20;0.20;;;;;;;8.52;66.91;100303.09;5087764;28;20353;-86